createdAt,value
2022-12-07T00:01:16.142Z,35.23
2022-12-07T00:03:44.564Z,35.29
2022-12-07T00:06:12.603Z,35.44
2022-12-07T00:08:40.308Z,35.25
2022-12-07T00:11:08.422Z,35.35
2022-12-07T00:13:36.128Z,35.38
2022-12-07T00:16:05.546Z,35.35
2022-12-07T00:18:33.302Z,35.19
2022-12-07T00:21:01.557Z,35.47
2022-12-07T00:23:29.570Z,35.27
2022-12-07T00:25:57.292Z,35.49
2022-12-07T00:28:24.969Z,35.17
2022-12-07T00:30:52.640Z,35.39
2022-12-07T00:33:21.648Z,35.30
2022-12-07T00:35:49.263Z,35.31
2022-12-07T00:38:17.012Z,35.38
2022-12-07T00:40:44.690Z,35.19
2022-12-07T00:43:12.398Z,35.16
2022-12-07T00:45:40.223Z,35.25
2022-12-07T00:48:07.984Z,35.15
2022-12-07T00:50:37.061Z,35.31
2022-12-07T00:53:04.648Z,35.24
2022-12-07T00:55:34.687Z,35.07
2022-12-07T00:58:03.775Z,35.22
2022-12-07T01:00:31.394Z,35.13
2022-12-07T01:02:59.431Z,35.08
2022-12-07T01:05:27.149Z,35.12
2022-12-07T01:07:56.228Z,35.01
2022-12-07T01:10:23.979Z,35.06
2022-12-07T01:12:51.604Z,35.12
2022-12-07T01:15:19.256Z,34.89
2022-12-07T01:17:46.916Z,35.08
2022-12-07T01:20:14.957Z,34.90
2022-12-07T01:22:42.784Z,34.91
2022-12-07T01:25:12.217Z,35.00
2022-12-07T01:27:39.932Z,34.99
2022-12-07T01:30:08.249Z,34.94
2022-12-07T01:32:35.861Z,34.87
2022-12-07T01:35:03.550Z,34.92
2022-12-07T01:37:35.537Z,35.08
2022-12-07T01:40:03.367Z,35.02
2022-12-07T01:42:32.530Z,34.81
2022-12-07T01:45:18.536Z,34.96
2022-12-07T01:47:49.486Z,34.79
2022-12-07T01:50:17.217Z,34.73
2022-12-07T01:52:44.874Z,34.91
2022-12-07T01:55:12.949Z,34.82
2022-12-07T01:57:42.190Z,34.91
2022-12-07T02:00:10.263Z,34.72
2022-12-07T02:02:39.252Z,34.76
2022-12-07T02:05:07.504Z,34.71
2022-12-07T02:07:35.313Z,34.82
2022-12-07T02:10:13.747Z,34.70
2022-12-07T02:12:42.813Z,34.69
2022-12-07T02:15:10.802Z,34.67
2022-12-07T02:17:39.554Z,34.84
2022-12-07T02:20:19.980Z,34.76
2022-12-07T02:22:56.828Z,34.64
2022-12-07T02:25:25.862Z,34.74
2022-12-07T02:27:55.087Z,34.73
2022-12-07T02:30:24.378Z,34.62
2022-12-07T02:32:53.344Z,34.61
2022-12-07T02:35:21.430Z,34.56
2022-12-07T02:37:55.227Z,34.68
2022-12-07T02:40:24.164Z,34.51
2022-12-07T02:42:52.711Z,34.54
2022-12-07T02:45:20.783Z,34.48
2022-12-07T02:47:51.219Z,34.68
2022-12-07T02:50:19.641Z,34.44
2022-12-07T02:52:50.125Z,34.53
2022-12-07T02:55:17.888Z,34.68
2022-12-07T02:57:50.159Z,34.62
2022-12-07T03:00:17.859Z,34.47
2022-12-07T03:02:49.032Z,34.47
2022-12-07T03:05:40.573Z,34.64
2022-12-07T03:08:11.458Z,34.39
2022-12-07T03:10:40.643Z,34.61
2022-12-07T03:13:09.574Z,34.59
2022-12-07T03:15:38.133Z,34.52
2022-12-07T03:18:05.854Z,34.56
2022-12-07T03:20:33.635Z,34.44
2022-12-07T03:23:01.323Z,34.35
2022-12-07T03:25:30.394Z,34.56
2022-12-07T03:27:58.521Z,34.26
2022-12-07T03:30:26.589Z,34.23
2022-12-07T03:32:55.315Z,34.25
2022-12-07T03:35:24.084Z,34.34
2022-12-07T03:37:52.727Z,34.40
2022-12-07T03:40:23.801Z,34.30
2022-12-07T03:42:52.974Z,34.33
2022-12-07T03:45:20.740Z,34.21
2022-12-07T03:47:49.060Z,34.34
2022-12-07T03:50:18.830Z,34.24
2022-12-07T03:52:47.607Z,34.52
2022-12-07T03:55:17.064Z,34.35
2022-12-07T03:57:45.093Z,34.37
2022-12-07T04:00:16.046Z,34.34
2022-12-07T04:02:43.884Z,34.31
2022-12-07T04:05:11.599Z,34.29
2022-12-07T04:07:39.359Z,34.38
2022-12-07T04:10:07.501Z,34.19
2022-12-07T04:12:36.027Z,34.31
2022-12-07T04:15:03.686Z,34.35
2022-12-07T04:17:32.664Z,34.33
2022-12-07T04:20:01.035Z,34.56
2022-12-07T04:22:28.956Z,34.25
2022-12-07T04:24:56.616Z,34.21
2022-12-07T04:27:24.275Z,34.29
2022-12-07T04:29:51.860Z,34.41
2022-12-07T04:32:19.521Z,34.19
2022-12-07T04:34:52.629Z,34.22
2022-12-07T04:37:22.965Z,34.42
2022-12-07T04:39:50.661Z,34.21
2022-12-07T04:42:18.341Z,34.32
2022-12-07T04:44:46.005Z,34.13
2022-12-07T04:47:13.641Z,34.13
2022-12-07T04:49:41.334Z,34.19
2022-12-07T04:52:10.378Z,34.28
2022-12-07T04:54:38.059Z,34.09
2022-12-07T04:57:05.730Z,34.32
2022-12-07T04:59:33.421Z,34.19
2022-12-07T05:02:01.127Z,34.26
2022-12-07T05:04:28.827Z,34.32
2022-12-07T05:06:56.507Z,34.45
2022-12-07T05:09:25.495Z,34.34
2022-12-07T05:11:53.236Z,34.11
2022-12-07T05:14:21.214Z,34.26
2022-12-07T05:16:49.574Z,34.31
2022-12-07T05:19:17.356Z,34.16
2022-12-07T05:21:44.993Z,34.14
2022-12-07T05:24:13.126Z,34.26
2022-12-07T05:26:42.163Z,34.17
2022-12-07T05:29:09.841Z,34.31
2022-12-07T05:31:37.594Z,34.29
2022-12-07T05:34:05.249Z,34.27
2022-12-07T05:36:33.219Z,34.22
2022-12-07T05:39:00.901Z,34.39
2022-12-07T05:41:46.151Z,34.29
2022-12-07T05:44:16.342Z,34.25
2022-12-07T05:46:44.383Z,34.11
2022-12-07T05:49:11.985Z,34.11
2022-12-07T05:51:39.682Z,34.24
2022-12-07T05:54:07.334Z,34.24
2022-12-07T05:56:35.018Z,34.14
2022-12-07T05:59:20.399Z,34.18
2022-12-07T06:01:49.487Z,34.26
2022-12-07T06:04:17.754Z,34.06
2022-12-07T06:06:45.479Z,34.07
2022-12-07T06:09:14.077Z,34.08
2022-12-07T06:11:59.546Z,34.03
2022-12-07T06:14:27.183Z,34.21
2022-12-07T06:16:56.328Z,34.15
2022-12-07T06:19:23.995Z,34.18
2022-12-07T06:21:51.590Z,34.02
2022-12-07T06:24:19.245Z,34.19
2022-12-07T06:26:47.035Z,34.16
2022-12-07T06:29:14.760Z,34.13
2022-12-07T06:31:42.592Z,34.20
2022-12-07T06:34:13.056Z,34.12
2022-12-07T06:36:40.728Z,33.99
2022-12-07T06:39:10.133Z,34.06
2022-12-07T06:41:38.147Z,34.05
2022-12-07T06:44:06.007Z,34.14
2022-12-07T06:46:33.614Z,33.96
2022-12-07T06:49:01.203Z,34.00
2022-12-07T06:51:30.334Z,33.97
2022-12-07T06:53:57.965Z,34.02
2022-12-07T06:56:25.650Z,33.88
2022-12-07T06:58:53.347Z,33.90
2022-12-07T07:01:21.207Z,33.89
2022-12-07T07:03:48.844Z,34.04
2022-12-07T07:06:16.575Z,33.86
2022-12-07T07:08:45.621Z,33.93
2022-12-07T07:11:14.381Z,33.94
2022-12-07T07:13:42.037Z,33.88
2022-12-07T07:16:09.830Z,33.95
2022-12-07T07:18:37.576Z,33.92
2022-12-07T07:21:05.462Z,33.99
2022-12-07T07:23:33.128Z,34.00
2022-12-07T07:26:02.175Z,33.91
2022-12-07T07:28:29.743Z,33.94
2022-12-07T07:30:57.510Z,33.97
2022-12-07T07:33:25.165Z,33.97
2022-12-07T07:35:52.809Z,34.01
2022-12-07T07:38:20.494Z,33.94
2022-12-07T07:40:48.194Z,33.98
2022-12-07T07:43:17.164Z,33.98
2022-12-07T07:45:45.013Z,33.98
2022-12-07T07:48:12.710Z,33.90
2022-12-07T07:50:40.359Z,33.97
2022-12-07T07:53:08.005Z,34.06
2022-12-07T07:55:35.742Z,33.81
2022-12-07T07:58:03.389Z,34.17
2022-12-07T08:00:32.417Z,33.93
2022-12-07T08:03:00.464Z,34.04
2022-12-07T08:05:28.178Z,33.90
2022-12-07T08:07:55.906Z,34.04
2022-12-07T08:10:23.620Z,33.91
2022-12-07T08:13:08.713Z,34.04
2022-12-07T08:15:38.235Z,33.90
2022-12-07T08:18:06.049Z,34.19
2022-12-07T08:20:33.938Z,33.97
2022-12-07T08:23:01.576Z,34.22
2022-12-07T08:25:29.297Z,34.09
2022-12-07T08:27:56.908Z,34.05
2022-12-07T08:30:24.518Z,34.09
2022-12-07T08:32:54.838Z,34.29
2022-12-07T08:35:22.498Z,34.14
2022-12-07T08:37:51.531Z,34.08
2022-12-07T08:40:19.975Z,34.30
2022-12-07T08:42:50.657Z,34.21
2022-12-07T08:45:23.384Z,34.16
2022-12-07T08:47:56.507Z,34.13
2022-12-07T08:50:24.440Z,34.32
2022-12-07T08:52:52.320Z,34.41
2022-12-07T08:55:20.088Z,34.36
2022-12-07T08:57:47.842Z,34.22
2022-12-07T09:00:15.960Z,34.39
2022-12-07T09:03:20.870Z,34.40
2022-12-07T09:05:51.288Z,34.20
2022-12-07T09:08:18.982Z,34.21
2022-12-07T09:10:47.250Z,34.21
2022-12-07T09:13:15.113Z,34.41
2022-12-07T09:15:42.877Z,34.45
2022-12-07T09:18:10.764Z,34.29
2022-12-07T09:20:38.384Z,34.36
2022-12-07T09:23:08.739Z,34.56
2022-12-07T09:25:36.432Z,34.44
2022-12-07T09:28:04.149Z,34.37
2022-12-07T09:30:31.790Z,34.34
2022-12-07T09:32:59.865Z,34.58
2022-12-07T09:35:27.551Z,34.51
2022-12-07T09:37:55.331Z,34.47
2022-12-07T09:40:24.677Z,34.43
2022-12-07T09:42:53.467Z,34.39
2022-12-07T09:45:21.651Z,34.58
2022-12-07T09:47:49.348Z,34.45
2022-12-07T09:50:17.734Z,34.62
2022-12-07T09:52:45.799Z,34.48
2022-12-07T09:55:14.665Z,34.68
2022-12-07T09:57:43.813Z,34.58
2022-12-07T10:00:14.034Z,34.66
2022-12-07T10:02:48.818Z,34.68
2022-12-07T10:05:22.265Z,34.76
2022-12-07T10:07:51.998Z,34.70
2022-12-07T10:10:20.234Z,34.63
2022-12-07T10:12:59.750Z,34.53
2022-12-07T10:15:42.827Z,34.56
2022-12-07T10:18:19.267Z,34.52
2022-12-07T10:20:47.132Z,34.76
2022-12-07T10:23:16.250Z,34.68
2022-12-07T10:25:43.974Z,34.65
2022-12-07T10:28:15.298Z,34.85
2022-12-07T10:30:49.935Z,34.71
2022-12-07T10:33:26.228Z,34.84
2022-12-07T10:35:53.939Z,34.71
2022-12-07T10:38:21.635Z,34.75
2022-12-07T10:40:49.255Z,34.89
2022-12-07T10:43:20.901Z,34.93
2022-12-07T10:46:04.192Z,34.71
2022-12-07T10:48:33.944Z,34.93
2022-12-07T10:51:03.720Z,34.72
2022-12-07T10:53:37.524Z,34.91
2022-12-07T10:56:10.118Z,34.94
2022-12-07T10:58:46.599Z,34.79
2022-12-07T11:01:15.409Z,34.89
2022-12-07T11:03:48.708Z,34.96
2022-12-07T11:06:20.098Z,34.91
2022-12-07T11:08:51.422Z,34.91
2022-12-07T11:11:20.856Z,34.89
2022-12-07T11:13:50.906Z,34.76
2022-12-07T11:16:21.966Z,34.99
2022-12-07T11:18:52.696Z,34.87
2022-12-07T11:21:23.062Z,34.92
2022-12-07T11:23:51.663Z,34.68
2022-12-07T11:26:22.334Z,34.83
2022-12-07T11:28:56.420Z,34.94
2022-12-07T11:31:29.200Z,34.76
2022-12-07T11:34:00.123Z,35.17
2022-12-07T11:36:35.737Z,34.90
2022-12-07T11:39:04.525Z,35.05
2022-12-07T11:41:33.231Z,34.83
2022-12-07T11:44:04.071Z,34.92
2022-12-07T11:46:33.847Z,35.07
2022-12-07T11:49:04.468Z,35.03
2022-12-07T11:51:33.767Z,34.94
2022-12-07T11:54:02.618Z,35.19
2022-12-07T11:56:30.464Z,35.04
2022-12-07T11:58:59.588Z,35.04
2022-12-07T12:01:41.513Z,34.95
2022-12-07T12:04:14.543Z,34.96
2022-12-07T12:06:42.927Z,35.10
2022-12-07T12:15:00.508Z,34.99
2022-12-07T12:17:41.575Z,34.92
2022-12-07T12:20:13.697Z,35.06
2022-12-07T12:22:41.909Z,34.92
2022-12-07T12:25:09.871Z,34.94
2022-12-07T12:27:38.595Z,34.89
2022-12-07T12:30:26.869Z,34.89
2022-12-07T12:32:56.242Z,34.92
2022-12-07T12:35:31.165Z,34.85
2022-12-07T12:38:21.696Z,34.82
2022-12-07T12:40:51.209Z,34.89
2022-12-07T12:43:37.548Z,34.96
2022-12-07T12:46:23.272Z,35.12
2022-12-07T12:48:52.706Z,34.97
2022-12-07T12:51:48.007Z,34.98
2022-12-07T12:54:17.051Z,34.89
2022-12-07T12:56:45.318Z,34.97
2022-12-07T12:59:26.776Z,35.04
2022-12-07T13:01:55.768Z,35.09
2022-12-07T13:04:30.562Z,34.88
2022-12-07T13:06:58.244Z,35.08
2022-12-07T13:09:27.653Z,34.92
2022-12-07T13:11:59.182Z,35.03
2022-12-07T13:14:54.023Z,34.96
2022-12-07T13:17:40.892Z,34.93
2022-12-07T13:20:15.880Z,34.81
2022-12-07T13:22:53.991Z,34.97
2022-12-07T13:25:28.669Z,34.71
2022-12-07T13:27:57.900Z,34.84
2022-12-07T13:30:26.647Z,34.74
2022-12-07T13:32:54.757Z,34.74
2022-12-07T13:35:34.346Z,34.84
2022-12-07T13:38:03.837Z,34.72
2022-12-07T13:40:31.745Z,34.60
2022-12-07T13:43:00.558Z,34.92
2022-12-07T13:45:49.193Z,34.81
2022-12-07T13:48:54.205Z,34.75
2022-12-07T13:51:24.020Z,34.69
2022-12-07T13:53:52.834Z,34.83
2022-12-07T13:56:20.671Z,34.64
2022-12-07T13:58:48.995Z,34.65
2022-12-07T14:01:16.751Z,34.69
2022-12-07T14:04:18.560Z,34.91
2022-12-07T14:06:52.169Z,34.70
2022-12-07T14:09:21.135Z,34.67
2022-12-07T14:11:49.419Z,34.73
2022-12-07T14:14:18.631Z,34.78
2022-12-07T14:16:47.594Z,34.76
2022-12-07T14:19:30.827Z,34.75
2022-12-07T14:22:09.520Z,34.75
2022-12-07T14:24:44.945Z,34.69
2022-12-07T14:27:18.805Z,34.83
2022-12-07T14:29:47.167Z,34.67
2022-12-07T14:32:22.074Z,34.81
2022-12-07T14:35:01.267Z,34.86
2022-12-07T14:37:30.986Z,34.71
2022-12-07T14:39:59.862Z,34.70
2022-12-07T14:42:29.064Z,34.87
2022-12-07T14:44:57.570Z,34.81
2022-12-07T14:50:15.854Z,34.69
2022-12-07T14:55:33.830Z,34.87
2022-12-07T14:58:01.510Z,34.76
2022-12-07T15:00:30.753Z,34.82
2022-12-07T15:02:59.935Z,34.77
2022-12-07T15:05:28.354Z,34.66
2022-12-07T15:07:58.173Z,34.76
2022-12-07T15:10:31.805Z,34.61
2022-12-07T15:13:20.442Z,34.73
2022-12-07T15:15:49.002Z,34.74
2022-12-07T15:18:16.777Z,34.72
2022-12-07T15:20:45.907Z,34.88
2022-12-07T15:23:15.019Z,34.68
2022-12-07T15:25:43.370Z,34.71
2022-12-07T15:28:10.983Z,34.77
2022-12-07T15:30:39.558Z,34.71
2022-12-07T15:33:07.190Z,34.73
2022-12-07T15:35:35.625Z,34.75
2022-12-07T15:38:03.867Z,34.70
2022-12-07T15:40:33.657Z,34.69
2022-12-07T15:43:01.319Z,34.72
2022-12-07T15:45:28.676Z,34.77
2022-12-07T15:50:45.325Z,34.83
2022-12-07T15:53:12.971Z,34.67
2022-12-07T15:55:43.791Z,34.69
2022-12-07T15:58:11.456Z,34.63
2022-12-07T16:00:39.797Z,34.59
2022-12-07T16:03:07.538Z,34.56
2022-12-07T16:05:36.143Z,34.74
2022-12-07T16:08:04.632Z,34.63
2022-12-07T16:10:33.070Z,34.67
2022-12-07T16:13:02.152Z,34.66
2022-12-07T16:15:30.453Z,34.78
2022-12-07T16:17:58.135Z,34.64
2022-12-07T16:20:26.552Z,34.68
2022-12-07T16:22:54.417Z,34.74
2022-12-07T16:25:22.738Z,34.57
2022-12-07T16:27:50.387Z,34.58
2022-12-07T16:30:20.215Z,34.66
2022-12-07T16:32:47.873Z,34.63
2022-12-07T16:35:16.319Z,34.70
2022-12-07T16:37:44.042Z,34.78
2022-12-07T16:40:13.829Z,34.61
2022-12-07T16:42:41.474Z,34.64
2022-12-07T16:45:10.232Z,34.78
2022-12-07T16:47:40.457Z,34.66
2022-12-07T16:50:09.492Z,34.56
2022-12-07T16:52:37.163Z,34.72
2022-12-07T16:55:05.844Z,34.69
2022-12-07T16:57:33.765Z,34.58
2022-12-07T17:00:02.288Z,34.66
2022-12-07T17:02:30.058Z,34.44
2022-12-07T17:05:01.129Z,34.38
2022-12-07T17:07:29.855Z,34.46
2022-12-07T17:09:58.203Z,34.50
2022-12-07T17:12:26.850Z,34.37
2022-12-07T17:15:12.713Z,34.38
2022-12-07T17:17:40.946Z,34.35
2022-12-07T17:20:32.858Z,34.62
2022-12-07T17:23:00.456Z,34.47
2022-12-07T17:25:29.247Z,34.43
2022-12-07T17:27:56.865Z,34.27
2022-12-07T17:30:25.379Z,34.51
2022-12-07T17:32:53.463Z,34.48
2022-12-07T17:35:21.841Z,34.44
2022-12-07T17:37:51.364Z,34.44
2022-12-07T17:40:19.953Z,34.17
2022-12-07T17:42:51.378Z,34.19
2022-12-07T17:45:19.871Z,34.35
2022-12-07T17:47:47.573Z,34.29
2022-12-07T17:50:15.941Z,34.22
2022-12-07T17:53:01.122Z,34.36
2022-12-07T17:55:43.810Z,34.13
2022-12-07T17:58:18.712Z,34.28
2022-12-07T18:00:47.920Z,34.32
2022-12-07T18:03:15.693Z,34.27
2022-12-07T18:05:45.949Z,34.12
2022-12-07T18:08:14.390Z,34.06
2022-12-07T18:10:44.686Z,34.00
2022-12-07T18:13:31.074Z,34.07
2022-12-07T18:16:05.299Z,34.19
2022-12-07T18:18:33.074Z,33.88
2022-12-07T18:21:03.257Z,33.97
2022-12-07T18:23:32.241Z,34.08
2022-12-07T18:26:04.466Z,34.02
2022-12-07T18:28:33.511Z,34.08
2022-12-07T18:31:17.243Z,33.95
2022-12-07T18:33:45.109Z,33.94
2022-12-07T18:36:17.072Z,33.88
2022-12-07T18:38:44.924Z,33.88
2022-12-07T18:41:15.241Z,33.93
2022-12-07T18:43:43.069Z,33.91
2022-12-07T18:46:12.065Z,33.93
2022-12-07T18:48:39.843Z,33.86
2022-12-07T18:51:08.485Z,33.97
2022-12-07T18:53:36.359Z,33.86
2022-12-07T18:56:04.982Z,34.09
2022-12-07T18:58:34.001Z,33.78
2022-12-07T19:01:08.429Z,33.84
2022-12-07T19:03:36.149Z,34.02
2022-12-07T19:06:08.285Z,33.98
2022-12-07T19:08:44.573Z,33.97
2022-12-07T19:11:32.381Z,33.74
2022-12-07T19:14:01.392Z,33.93
2022-12-07T19:16:30.228Z,33.91
2022-12-07T19:18:57.914Z,33.95
2022-12-07T19:21:26.381Z,33.86
2022-12-07T19:23:54.070Z,33.93
2022-12-07T19:26:24.049Z,33.95
2022-12-07T19:28:51.740Z,34.01
2022-12-07T19:31:21.562Z,33.94
2022-12-07T19:33:49.246Z,33.94
2022-12-07T19:36:17.674Z,33.92
2022-12-07T19:38:45.314Z,33.92
2022-12-07T19:41:34.280Z,34.08
2022-12-07T19:44:01.985Z,34.08
2022-12-07T19:46:31.789Z,34.03
2022-12-07T19:49:00.645Z,33.93
2022-12-07T19:51:30.127Z,34.09
2022-12-07T19:53:58.533Z,34.06
2022-12-07T19:56:28.765Z,34.00
2022-12-07T19:58:56.525Z,33.97
2022-12-07T20:01:30.450Z,34.11
2022-12-07T20:04:01.111Z,33.97
2022-12-07T20:06:31.136Z,34.02
2022-12-07T20:08:59.535Z,34.07
2022-12-07T20:11:46.094Z,34.03
2022-12-07T20:14:13.903Z,34.10
2022-12-07T20:16:43.168Z,34.10
2022-12-07T20:19:12.260Z,34.21
2022-12-07T20:21:41.122Z,34.01
2022-12-07T20:24:09.091Z,34.13
2022-12-07T20:26:36.757Z,33.93
2022-12-07T20:29:11.015Z,34.15
2022-12-07T20:31:43.083Z,33.95
2022-12-07T20:34:12.175Z,33.84
2022-12-07T20:37:02.528Z,33.91
2022-12-07T20:39:30.813Z,33.99
2022-12-07T20:42:16.534Z,33.89
2022-12-07T20:44:44.179Z,34.05
2022-12-07T20:47:18.422Z,33.81
2022-12-07T20:49:47.460Z,33.81
2022-12-07T20:52:15.911Z,33.93
2022-12-07T20:54:43.628Z,33.80
2022-12-07T20:57:12.022Z,33.96
2022-12-07T20:59:41.734Z,33.79
2022-12-07T21:02:11.871Z,34.04
2022-12-07T21:04:39.538Z,33.96
2022-12-07T21:07:10.946Z,33.81
2022-12-07T21:09:38.689Z,33.98
2022-12-07T21:12:06.763Z,33.86
2022-12-07T21:14:35.168Z,33.84
2022-12-07T21:17:02.768Z,33.84
2022-12-07T21:19:32.122Z,33.91
2022-12-07T21:21:59.854Z,33.77
2022-12-07T21:24:30.314Z,33.94
2022-12-07T21:26:58.002Z,33.93
2022-12-07T21:29:42.707Z,33.69
2022-12-07T21:32:11.228Z,33.78
2022-12-07T21:34:39.768Z,33.75
2022-12-07T21:37:07.802Z,33.89
2022-12-07T21:39:38.095Z,33.75
2022-12-07T21:42:05.922Z,33.90
2022-12-07T21:44:34.331Z,33.70
2022-12-07T21:47:02.049Z,33.92
2022-12-07T21:49:30.570Z,33.67
2022-12-07T21:52:01.252Z,33.86
2022-12-07T21:54:31.139Z,33.66
2022-12-07T21:57:00.152Z,33.87
2022-12-07T21:59:28.598Z,33.63
2022-12-07T22:01:56.279Z,33.85
2022-12-07T22:04:25.127Z,33.72
2022-12-07T22:06:55.083Z,33.66
2022-12-07T22:09:24.327Z,33.67
2022-12-07T22:11:51.974Z,33.74
2022-12-07T22:14:39.529Z,33.67
2022-12-07T22:17:07.222Z,33.67
2022-12-07T22:19:36.411Z,34.05
2022-12-07T22:22:04.023Z,33.75
2022-12-07T22:24:32.390Z,33.76
2022-12-07T22:27:00.019Z,33.83
2022-12-07T22:29:31.189Z,33.77
2022-12-07T22:31:58.885Z,33.77
2022-12-07T22:34:28.106Z,33.79
2022-12-07T22:36:55.759Z,33.73
2022-12-07T22:39:24.045Z,33.83
2022-12-07T22:41:51.752Z,34.01
2022-12-07T22:44:20.147Z,33.74
2022-12-07T22:46:49.322Z,33.90
2022-12-07T22:49:17.709Z,33.83
2022-12-07T22:51:45.360Z,33.80
2022-12-07T22:54:15.144Z,33.95
2022-12-07T22:56:42.901Z,33.75
2022-12-07T22:59:11.250Z,33.75
2022-12-07T23:01:38.905Z,33.71
2022-12-07T23:04:08.682Z,33.83
2022-12-07T23:06:38.470Z,33.86
2022-12-07T23:09:07.959Z,33.94
2022-12-07T23:11:53.804Z,33.84
2022-12-07T23:14:22.149Z,33.72
2022-12-07T23:16:49.868Z,33.64
2022-12-07T23:19:19.269Z,33.92
2022-12-07T23:21:46.920Z,33.73
2022-12-07T23:24:14.991Z,33.55
2022-12-07T23:26:42.850Z,33.66
2022-12-07T23:29:15.729Z,33.81
2022-12-07T23:31:45.242Z,33.64
2022-12-07T23:34:12.980Z,33.66
2022-12-07T23:36:42.023Z,33.48
2022-12-07T23:39:10.113Z,33.48
2022-12-07T23:41:38.915Z,33.53
2022-12-07T23:44:06.614Z,33.58
2022-12-07T23:46:34.399Z,33.62
2022-12-07T23:49:02.521Z,33.53
2022-12-07T23:51:30.171Z,33.33
2022-12-07T23:53:59.862Z,33.37
2022-12-07T23:56:28.238Z,33.37
2022-12-07T23:58:56.214Z,33.11
